sensor_id;sensor_type;location;lat;lon;timestamp;pressure;altitude;pressure_sealevel;temperature;humidity
10008;BME280;5043;41.766;26.204;2023-07-31T00:00:00;100244.13;;;23.45;80.78
10008;BME280;5043;41.766;26.204;2023-07-31T00:02:25;100253.06;;;23.39;81.23
10008;BME280;5043;41.766;26.204;2023-07-31T00:04:51;100195.56;;;23.06;81.23
10008;BME280;5043;41.766;26.204;2023-07-31T00:07:16;100183.53;;;22.95;81.58
10008;BME280;5043;41.766;26.204;2023-07-31T00:09:41;100223.97;;;23.15;82.26
10008;BME280;5043;41.766;26.204;2023-07-31T00:12:07;100228.94;;;23.18;82.07
10008;BME280;5043;41.766;26.204;2023-07-31T00:14:33;100240.56;;;23.25;82.42
10008;BME280;5043;41.766;26.204;2023-07-31T00:16:58;100150.56;;;22.74;82.40
10008;BME280;5043;41.766;26.204;2023-07-31T00:19:24;100230.41;;;23.27;82.05
10008;BME280;5043;41.766;26.204;2023-07-31T00:21:49;100122.47;;;22.42;82.03
10008;BME280;5043;41.766;26.204;2023-07-31T00:24:14;100217.94;;;23.13;82.55
10008;BME280;5043;41.766;26.204;2023-07-31T00:26:40;100238.03;;;23.10;82.76
10008;BME280;5043;41.766;26.204;2023-07-31T00:29:05;100237.81;;;23.12;83.17
10008;BME280;5043;41.766;26.204;2023-07-31T00:31:31;100238.25;;;23.09;83.33
10008;BME280;5043;41.766;26.204;2023-07-31T00:33:56;100239.88;;;23.10;83.72
10008;BME280;5043;41.766;26.204;2023-07-31T00:36:22;100193.00;;;22.78;84.04
10008;BME280;5043;41.766;26.204;2023-07-31T00:38:47;100238.41;;;23.01;84.69
10008;BME280;5043;41.766;26.204;2023-07-31T00:41:13;100178.25;;;22.68;84.65
10008;BME280;5043;41.766;26.204;2023-07-31T00:43:38;100189.88;;;22.75;84.98
10008;BME280;5043;41.766;26.204;2023-07-31T00:46:03;100219.31;;;22.83;84.97
10008;BME280;5043;41.766;26.204;2023-07-31T00:48:30;100189.28;;;22.79;84.87
10008;BME280;5043;41.766;26.204;2023-07-31T00:50:55;100221.84;;;22.97;85.09
10008;BME280;5043;41.766;26.204;2023-07-31T00:53:21;100227.00;;;22.99;85.28
10008;BME280;5043;41.766;26.204;2023-07-31T00:55:46;100223.88;;;22.95;85.51
10008;BME280;5043;41.766;26.204;2023-07-31T00:58:12;100228.03;;;22.98;85.49
10008;BME280;5043;41.766;26.204;2023-07-31T01:00:37;100229.91;;;22.97;85.54
10008;BME280;5043;41.766;26.204;2023-07-31T01:03:03;100191.72;;;22.68;85.86
10008;BME280;5043;41.766;26.204;2023-07-31T01:11:15;100232.38;;;22.86;86.75
10008;BME280;5043;41.766;26.204;2023-07-31T01:13:42;100184.19;;;22.56;86.61
10008;BME280;5043;41.766;26.204;2023-07-31T01:16:08;100261.31;;;22.84;86.81
10008;BME280;5043;41.766;26.204;2023-07-31T01:18:33;100188.94;;;22.54;86.97
10008;BME280;5043;41.766;26.204;2023-07-31T01:21:12;100235.63;;;22.81;86.86
10008;BME280;5043;41.766;26.204;2023-07-31T01:26:30;100247.22;;;22.82;86.67
10008;BME280;5043;41.766;26.204;2023-07-31T01:29:14;100208.00;;;22.59;86.72
10008;BME280;5043;41.766;26.204;2023-07-31T01:31:41;100224.13;;;22.59;87.22
10008;BME280;5043;41.766;26.204;2023-07-31T01:34:09;100191.97;;;22.38;87.45
10008;BME280;5043;41.766;26.204;2023-07-31T01:36:35;100234.66;;;22.54;87.74
10008;BME280;5043;41.766;26.204;2023-07-31T01:39:01;100236.19;;;22.64;87.77
10008;BME280;5043;41.766;26.204;2023-07-31T01:41:27;100222.44;;;22.52;87.50
10008;BME280;5043;41.766;26.204;2023-07-31T01:43:53;100252.03;;;22.52;87.63
10008;BME280;5043;41.766;26.204;2023-07-31T01:46:19;100284.22;;;22.67;88.39
10008;BME280;5043;41.766;26.204;2023-07-31T01:48:44;100280.91;;;22.65;88.92
10008;BME280;5043;41.766;26.204;2023-07-31T01:51:10;100274.34;;;22.46;89.41
10008;BME280;5043;41.766;26.204;2023-07-31T01:53:35;100296.91;;;22.51;89.87
10008;BME280;5043;41.766;26.204;2023-07-31T01:56:00;100282.41;;;22.46;89.78
10008;BME280;5043;41.766;26.204;2023-07-31T01:58:26;100285.66;;;22.41;89.93
10008;BME280;5043;41.766;26.204;2023-07-31T02:00:51;100237.50;;;22.12;90.24
10008;BME280;5043;41.766;26.204;2023-07-31T02:03:17;100246.78;;;22.10;90.62
10008;BME280;5043;41.766;26.204;2023-07-31T02:05:46;100278.09;;;22.24;88.33
10008;BME280;5043;41.766;26.204;2023-07-31T02:08:12;100262.09;;;22.16;86.78
10008;BME280;5043;41.766;26.204;2023-07-31T02:10:38;100261.00;;;22.04;86.56
10008;BME280;5043;41.766;26.204;2023-07-31T02:13:03;100264.91;;;22.01;89.71
10008;BME280;5043;41.766;26.204;2023-07-31T02:15:30;100278.66;;;22.13;90.17
10008;BME280;5043;41.766;26.204;2023-07-31T02:17:55;100267.44;;;22.09;90.44
10008;BME280;5043;41.766;26.204;2023-07-31T02:20:20;100252.66;;;21.92;90.30
10008;BME280;5043;41.766;26.204;2023-07-31T02:22:46;100259.97;;;21.83;90.20
10008;BME280;5043;41.766;26.204;2023-07-31T02:25:11;100262.09;;;21.88;90.30
10008;BME280;5043;41.766;26.204;2023-07-31T02:27:36;100261.56;;;21.99;90.40
10008;BME280;5043;41.766;26.204;2023-07-31T02:30:02;100253.31;;;22.01;90.42
10008;BME280;5043;41.766;26.204;2023-07-31T02:32:29;100268.91;;;22.12;88.81
10008;BME280;5043;41.766;26.204;2023-07-31T02:34:54;100243.56;;;21.93;87.66
10008;BME280;5043;41.766;26.204;2023-07-31T02:37:19;100268.41;;;22.02;87.43
10008;BME280;5043;41.766;26.204;2023-07-31T02:39:45;100259.13;;;21.83;87.57
10008;BME280;5043;41.766;26.204;2023-07-31T02:42:10;100266.31;;;21.97;88.62
10008;BME280;5043;41.766;26.204;2023-07-31T02:44:36;100246.09;;;21.80;90.58
10008;BME280;5043;41.766;26.204;2023-07-31T02:47:01;100273.25;;;21.85;91.46
10008;BME280;5043;41.766;26.204;2023-07-31T02:49:28;100238.31;;;21.64;92.42
10008;BME280;5043;41.766;26.204;2023-07-31T02:51:53;100186.97;;;21.31;92.93
10008;BME280;5043;41.766;26.204;2023-07-31T02:54:19;100222.66;;;21.46;93.40
10008;BME280;5043;41.766;26.204;2023-07-31T02:56:47;100268.88;;;21.63;93.92
10008;BME280;5043;41.766;26.204;2023-07-31T02:59:12;100271.56;;;21.63;93.97
10008;BME280;5043;41.766;26.204;2023-07-31T03:01:37;100232.59;;;21.31;92.05
10008;BME280;5043;41.766;26.204;2023-07-31T03:04:03;100277.31;;;21.60;90.70
10008;BME280;5043;41.766;26.204;2023-07-31T03:06:29;100279.34;;;21.58;89.62
10008;BME280;5043;41.766;26.204;2023-07-31T03:08:54;100285.75;;;21.57;89.29
10008;BME280;5043;41.766;26.204;2023-07-31T03:11:19;100234.41;;;21.24;89.01
10008;BME280;5043;41.766;26.204;2023-07-31T03:13:45;100269.28;;;21.45;88.45
10008;BME280;5043;41.766;26.204;2023-07-31T03:16:10;100286.97;;;21.54;88.06
10008;BME280;5043;41.766;26.204;2023-07-31T03:18:36;100304.09;;;21.53;88.06
10008;BME280;5043;41.766;26.204;2023-07-31T03:21:01;100295.41;;;21.51;87.89
10008;BME280;5043;41.766;26.204;2023-07-31T03:23:27;100281.00;;;21.38;88.39
10008;BME280;5043;41.766;26.204;2023-07-31T03:26:00;100293.78;;;21.36;89.25
10008;BME280;5043;41.766;26.204;2023-07-31T03:28:26;100305.03;;;21.46;89.86
10008;BME280;5043;41.766;26.204;2023-07-31T03:30:52;100302.03;;;21.19;93.48
10008;BME280;5043;41.766;26.204;2023-07-31T03:33:18;100283.44;;;21.03;94.64
10008;BME280;5043;41.766;26.204;2023-07-31T03:35:43;100313.34;;;21.15;94.69
10008;BME280;5043;41.766;26.204;2023-07-31T03:38:09;100293.00;;;21.20;92.13
10008;BME280;5043;41.766;26.204;2023-07-31T03:40:34;100256.56;;;20.97;90.25
10008;BME280;5043;41.766;26.204;2023-07-31T03:42:59;100266.81;;;21.08;88.48
10008;BME280;5043;41.766;26.204;2023-07-31T03:45:25;100303.28;;;21.17;87.48
10008;BME280;5043;41.766;26.204;2023-07-31T03:47:50;100308.16;;;21.28;87.11
10008;BME280;5043;41.766;26.204;2023-07-31T03:50:16;100289.16;;;21.30;86.40
10008;BME280;5043;41.766;26.204;2023-07-31T03:52:41;100290.72;;;21.39;85.95
10008;BME280;5043;41.766;26.204;2023-07-31T03:55:07;100234.00;;;21.06;86.65
10008;BME280;5043;41.766;26.204;2023-07-31T03:57:32;100237.41;;;21.14;86.86
10008;BME280;5043;41.766;26.204;2023-07-31T03:59:58;100297.72;;;21.54;86.72
10008;BME280;5043;41.766;26.204;2023-07-31T04:02:24;100282.41;;;21.55;87.20
10008;BME280;5043;41.766;26.204;2023-07-31T04:04:49;100258.31;;;21.40;87.35
10008;BME280;5043;41.766;26.204;2023-07-31T04:07:15;100289.50;;;21.62;87.84
10008;BME280;5043;41.766;26.204;2023-07-31T04:09:40;100266.81;;;21.65;88.32
10008;BME280;5043;41.766;26.204;2023-07-31T04:12:06;100258.91;;;21.57;88.11
10008;BME280;5043;41.766;26.204;2023-07-31T04:14:31;100260.50;;;21.72;87.57
10008;BME280;5043;41.766;26.204;2023-07-31T04:16:57;100215.75;;;21.37;87.67
10008;BME280;5043;41.766;26.204;2023-07-31T04:19:22;100269.19;;;21.74;87.56
10008;BME280;5043;41.766;26.204;2023-07-31T04:21:48;100285.66;;;21.86;86.40
10008;BME280;5043;41.766;26.204;2023-07-31T04:24:13;100280.78;;;21.75;85.72
10008;BME280;5043;41.766;26.204;2023-07-31T04:26:38;100271.88;;;21.74;85.99
10008;BME280;5043;41.766;26.204;2023-07-31T04:29:04;100273.59;;;21.82;85.61
10008;BME280;5043;41.766;26.204;2023-07-31T04:31:29;100269.88;;;21.83;85.64
10008;BME280;5043;41.766;26.204;2023-07-31T04:33:55;100282.03;;;22.00;85.25
10008;BME280;5043;41.766;26.204;2023-07-31T04:36:20;100297.38;;;22.06;85.11
10008;BME280;5043;41.766;26.204;2023-07-31T04:38:45;100258.13;;;22.05;84.78
10008;BME280;5043;41.766;26.204;2023-07-31T04:41:11;100281.88;;;22.29;84.66
10008;BME280;5043;41.766;26.204;2023-07-31T04:43:36;100274.22;;;22.33;84.58
10008;BME280;5043;41.766;26.204;2023-07-31T04:46:05;100274.03;;;22.34;84.27
10008;BME280;5043;41.766;26.204;2023-07-31T04:48:30;100278.78;;;22.32;83.78
10008;BME280;5043;41.766;26.204;2023-07-31T04:50:56;100243.41;;;22.29;84.01
10008;BME280;5043;41.766;26.204;2023-07-31T04:53:21;100305.75;;;22.73;84.65
10008;BME280;5043;41.766;26.204;2023-07-31T04:55:46;100301.03;;;22.82;84.45
10008;BME280;5043;41.766;26.204;2023-07-31T04:58:12;100310.53;;;22.78;85.10
10008;BME280;5043;41.766;26.204;2023-07-31T05:00:37;100298.06;;;22.70;85.08
10008;BME280;5043;41.766;26.204;2023-07-31T05:03:03;100307.34;;;22.61;86.99
10008;BME280;5043;41.766;26.204;2023-07-31T05:05:28;100311.16;;;22.80;86.48
10008;BME280;5043;41.766;26.204;2023-07-31T05:07:53;100304.19;;;22.92;86.38
10008;BME280;5043;41.766;26.204;2023-07-31T05:10:19;100325.66;;;22.79;89.98
10008;BME280;5043;41.766;26.204;2023-07-31T05:12:44;100314.72;;;22.87;90.39
10008;BME280;5043;41.766;26.204;2023-07-31T05:15:10;100314.31;;;22.83;90.32
10008;BME280;5043;41.766;26.204;2023-07-31T05:17:35;100313.75;;;22.94;89.33
10008;BME280;5043;41.766;26.204;2023-07-31T05:20:01;100344.47;;;23.19;88.25
10008;BME280;5043;41.766;26.204;2023-07-31T05:22:26;100338.25;;;23.12;88.63
10008;BME280;5043;41.766;26.204;2023-07-31T05:24:52;100337.94;;;23.35;87.84
10008;BME280;5043;41.766;26.204;2023-07-31T05:27:19;100341.53;;;23.49;86.38
10008;BME280;5043;41.766;26.204;2023-07-31T05:29:45;100329.72;;;23.50;85.68
10008;BME280;5043;41.766;26.204;2023-07-31T05:32:11;100332.69;;;23.87;84.26
10008;BME280;5043;41.766;26.204;2023-07-31T05:34:37;100342.22;;;23.83;85.00
10008;BME280;5043;41.766;26.204;2023-07-31T05:37:03;100343.91;;;23.91;85.12
10008;BME280;5043;41.766;26.204;2023-07-31T05:39:29;100356.56;;;24.04;85.06
10008;BME280;5043;41.766;26.204;2023-07-31T05:41:54;100377.38;;;24.36;83.76
10008;BME280;5043;41.766;26.204;2023-07-31T05:44:20;100365.94;;;24.47;83.10
10008;BME280;5043;41.766;26.204;2023-07-31T05:46:45;100366.34;;;24.57;82.85
10008;BME280;5043;41.766;26.204;2023-07-31T05:49:11;100365.53;;;24.83;81.43
10008;BME280;5043;41.766;26.204;2023-07-31T05:51:36;100371.31;;;24.86;81.71
10008;BME280;5043;41.766;26.204;2023-07-31T05:54:03;100386.84;;;25.10;81.12
10008;BME280;5043;41.766;26.204;2023-07-31T05:56:28;100379.69;;;25.36;80.04
10008;BME280;5043;41.766;26.204;2023-07-31T05:58:54;100393.16;;;25.55;78.84
10008;BME280;5043;41.766;26.204;2023-07-31T06:01:21;100392.31;;;25.55;78.33
10008;BME280;5043;41.766;26.204;2023-07-31T06:03:46;100410.59;;;25.59;77.74
10008;BME280;5043;41.766;26.204;2023-07-31T06:06:12;100407.72;;;25.35;78.77
10008;BME280;5043;41.766;26.204;2023-07-31T06:08:39;100400.16;;;24.99;79.92
10008;BME280;5043;41.766;26.204;2023-07-31T06:11:05;100413.50;;;24.87;81.08
10008;BME280;5043;41.766;26.204;2023-07-31T06:13:30;100389.38;;;24.53;81.76
10008;BME280;5043;41.766;26.204;2023-07-31T06:15:56;100414.69;;;24.72;81.92
10008;BME280;5043;41.766;26.204;2023-07-31T06:18:21;100393.53;;;24.62;81.75
10008;BME280;5043;41.766;26.204;2023-07-31T06:20:47;100408.50;;;24.78;81.85
10008;BME280;5043;41.766;26.204;2023-07-31T06:23:16;100413.47;;;24.61;82.66
10008;BME280;5043;41.766;26.204;2023-07-31T06:25:43;100421.75;;;24.59;83.09
10008;BME280;5043;41.766;26.204;2023-07-31T06:28:09;100427.38;;;24.51;83.79
10008;BME280;5043;41.766;26.204;2023-07-31T06:30:34;100431.31;;;24.49;83.96
10008;BME280;5043;41.766;26.204;2023-07-31T06:33:00;100432.34;;;24.41;84.63
10008;BME280;5043;41.766;26.204;2023-07-31T06:35:25;100435.25;;;24.53;84.09
10008;BME280;5043;41.766;26.204;2023-07-31T06:37:51;100438.78;;;24.40;84.87
10008;BME280;5043;41.766;26.204;2023-07-31T06:40:16;100427.38;;;24.51;84.08
10008;BME280;5043;41.766;26.204;2023-07-31T06:42:42;100426.94;;;24.48;85.07
10008;BME280;5043;41.766;26.204;2023-07-31T06:45:08;100421.75;;;24.53;82.14
10008;BME280;5043;41.766;26.204;2023-07-31T06:47:33;100407.47;;;24.59;80.87
10008;BME280;5043;41.766;26.204;2023-07-31T06:49:59;100425.50;;;24.91;78.72
10008;BME280;5043;41.766;26.204;2023-07-31T06:52:25;100428.16;;;25.17;77.32
10008;BME280;5043;41.766;26.204;2023-07-31T06:55:09;100433.09;;;25.34;77.86
10008;BME280;5043;41.766;26.204;2023-07-31T06:57:42;100445.56;;;25.35;75.61
10008;BME280;5043;41.766;26.204;2023-07-31T07:00:08;100428.72;;;25.39;75.34
10008;BME280;5043;41.766;26.204;2023-07-31T07:02:34;100436.91;;;25.13;74.46
10008;BME280;5043;41.766;26.204;2023-07-31T07:04:59;100426.75;;;25.08;73.80
10008;BME280;5043;41.766;26.204;2023-07-31T07:07:28;100412.59;;;25.06;72.41
10008;BME280;5043;41.766;26.204;2023-07-31T07:09:53;100405.31;;;25.13;72.73
10008;BME280;5043;41.766;26.204;2023-07-31T07:12:18;100413.31;;;25.53;71.21
10008;BME280;5043;41.766;26.204;2023-07-31T07:14:44;100410.63;;;25.53;68.20
10008;BME280;5043;41.766;26.204;2023-07-31T07:17:13;100408.13;;;25.58;67.33
10008;BME280;5043;41.766;26.204;2023-07-31T07:19:40;100435.00;;;25.84;66.53
10008;BME280;5043;41.766;26.204;2023-07-31T07:22:06;100368.09;;;25.73;63.60
10008;BME280;5043;41.766;26.204;2023-07-31T07:24:31;100420.88;;;26.51;62.93
10008;BME280;5043;41.766;26.204;2023-07-31T07:26:56;100417.06;;;26.58;60.95
10008;BME280;5043;41.766;26.204;2023-07-31T07:29:22;100414.75;;;26.87;61.08
10008;BME280;5043;41.766;26.204;2023-07-31T07:31:47;100406.47;;;27.00;57.64
10008;BME280;5043;41.766;26.204;2023-07-31T07:34:13;100422.47;;;27.26;56.35
10008;BME280;5043;41.766;26.204;2023-07-31T07:36:38;100399.94;;;27.07;55.67
10008;BME280;5043;41.766;26.204;2023-07-31T07:39:04;100418.47;;;27.28;54.50
10008;BME280;5043;41.766;26.204;2023-07-31T07:41:30;100410.69;;;27.32;53.99
10008;BME280;5043;41.766;26.204;2023-07-31T07:43:55;100420.22;;;27.41;53.99
10008;BME280;5043;41.766;26.204;2023-07-31T07:46:21;100425.25;;;27.19;55.22
10008;BME280;5043;41.766;26.204;2023-07-31T10:02:14;100433.00;;;27.70;59.55
10008;BME280;5043;41.766;26.204;2023-07-31T10:04:42;100415.41;;;27.61;60.08
10008;BME280;5043;41.766;26.204;2023-07-31T10:07:09;100370.81;;;27.21;61.23
10008;BME280;5043;41.766;26.204;2023-07-31T10:09:34;100423.94;;;27.22;61.97
10008;BME280;5043;41.766;26.204;2023-07-31T10:12:01;100420.22;;;27.41;62.30
10008;BME280;5043;41.766;26.204;2023-07-31T10:14:30;100424.41;;;27.19;63.02
10008;BME280;5043;41.766;26.204;2023-07-31T10:16:57;100377.72;;;26.99;63.15
10008;BME280;5043;41.766;26.204;2023-07-31T10:19:23;100402.13;;;27.35;62.89
10008;BME280;5043;41.766;26.204;2023-07-31T10:21:49;100387.63;;;27.77;61.55
10008;BME280;5043;41.766;26.204;2023-07-31T10:24:15;100406.97;;;27.81;60.39
10008;BME280;5043;41.766;26.204;2023-07-31T10:26:45;100414.59;;;28.20;58.54
10008;BME280;5043;41.766;26.204;2023-07-31T10:29:12;100401.66;;;28.04;59.35
10008;BME280;5043;41.766;26.204;2023-07-31T10:31:39;100370.47;;;27.95;58.96
10008;BME280;5043;41.766;26.204;2023-07-31T10:34:06;100415.53;;;28.26;60.12
10008;BME280;5043;41.766;26.204;2023-07-31T10:36:31;100358.50;;;28.03;59.01
10008;BME280;5043;41.766;26.204;2023-07-31T10:38:57;100411.22;;;28.36;59.69
10008;BME280;5043;41.766;26.204;2023-07-31T10:41:29;100421.50;;;28.46;59.57
10008;BME280;5043;41.766;26.204;2023-07-31T10:44:06;100400.31;;;28.25;60.85
10008;BME280;5043;41.766;26.204;2023-07-31T10:46:32;100396.22;;;28.45;60.47
10008;BME280;5043;41.766;26.204;2023-07-31T10:49:02;100405.72;;;28.89;58.35
10008;BME280;5043;41.766;26.204;2023-07-31T10:51:35;100391.88;;;29.14;57.83
10008;BME280;5043;41.766;26.204;2023-07-31T10:54:14;100389.59;;;29.46;56.48
10008;BME280;5043;41.766;26.204;2023-07-31T10:56:44;100380.47;;;29.91;53.27
10008;BME280;5043;41.766;26.204;2023-07-31T10:59:10;100384.91;;;30.42;50.77
10008;BME280;5043;41.766;26.204;2023-07-31T11:01:51;100375.63;;;30.77;48.07
10008;BME280;5043;41.766;26.204;2023-07-31T11:04:22;100370.34;;;31.25;44.79
10008;BME280;5043;41.766;26.204;2023-07-31T11:06:59;100365.31;;;31.39;45.93
10008;BME280;5043;41.766;26.204;2023-07-31T11:09:28;100348.34;;;31.53;43.27
10008;BME280;5043;41.766;26.204;2023-07-31T11:11:55;100340.34;;;31.47;43.69
10008;BME280;5043;41.766;26.204;2023-07-31T11:14:21;100342.28;;;32.00;42.63
10008;BME280;5043;41.766;26.204;2023-07-31T11:16:49;100347.50;;;32.33;41.69
10008;BME280;5043;41.766;26.204;2023-07-31T11:19:24;100303.31;;;32.46;39.71
10008;BME280;5043;41.766;26.204;2023-07-31T11:21:49;100354.19;;;32.89;38.76
10008;BME280;5043;41.766;26.204;2023-07-31T11:24:15;100300.28;;;32.84;38.22
10008;BME280;5043;41.766;26.204;2023-07-31T11:26:49;100334.34;;;33.13;37.80
10008;BME280;5043;41.766;26.204;2023-07-31T11:29:15;100334.47;;;33.39;36.77
10008;BME280;5043;41.766;26.204;2023-07-31T11:31:44;100319.91;;;33.28;36.46
10008;BME280;5043;41.766;26.204;2023-07-31T11:34:09;100326.81;;;33.41;35.81
10008;BME280;5043;41.766;26.204;2023-07-31T11:36:35;100312.44;;;33.03;36.82
10008;BME280;5043;41.766;26.204;2023-07-31T11:39:08;100269.28;;;33.25;36.53
10008;BME280;5043;41.766;26.204;2023-07-31T11:41:34;100309.94;;;33.89;36.06
10008;BME280;5043;41.766;26.204;2023-07-31T11:44:00;100324.47;;;33.95;34.80
10008;BME280;5043;41.766;26.204;2023-07-31T11:46:26;100309.69;;;33.85;34.85
10008;BME280;5043;41.766;26.204;2023-07-31T11:48:52;100263.31;;;33.44;35.20
10008;BME280;5043;41.766;26.204;2023-07-31T11:51:20;100293.50;;;33.64;35.23
10008;BME280;5043;41.766;26.204;2023-07-31T11:53:51;100295.94;;;33.55;34.61
10008;BME280;5043;41.766;26.204;2023-07-31T11:56:19;100305.56;;;33.78;34.73
10008;BME280;5043;41.766;26.204;2023-07-31T11:58:47;100326.44;;;34.04;34.49
10008;BME280;5043;41.766;26.204;2023-07-31T12:01:18;100326.94;;;34.21;34.68
10008;BME280;5043;41.766;26.204;2023-07-31T12:03:45;100272.97;;;34.22;34.21
10008;BME280;5043;41.766;26.204;2023-07-31T12:06:11;100253.00;;;34.06;34.08
10008;BME280;5043;41.766;26.204;2023-07-31T12:08:37;100278.19;;;34.23;33.93
10008;BME280;5043;41.766;26.204;2023-07-31T12:11:07;100277.06;;;34.60;33.28
10008;BME280;5043;41.766;26.204;2023-07-31T12:13:35;100268.03;;;34.39;33.81
10008;BME280;5043;41.766;26.204;2023-07-31T12:16:02;100290.22;;;34.63;33.16
10008;BME280;5043;41.766;26.204;2023-07-31T12:18:30;100269.47;;;35.10;32.63
10008;BME280;5043;41.766;26.204;2023-07-31T12:20:59;100224.31;;;35.37;31.06
10008;BME280;5043;41.766;26.204;2023-07-31T12:23:30;100269.53;;;36.22;29.89
10008;BME280;5043;41.766;26.204;2023-07-31T12:28:47;100225.91;;;36.86;28.92
10008;BME280;5043;41.766;26.204;2023-07-31T12:31:20;100251.00;;;37.46;28.68
10008;BME280;5043;41.766;26.204;2023-07-31T12:33:48;100207.88;;;37.36;28.21
10008;BME280;5043;41.766;26.204;2023-07-31T12:36:16;100240.72;;;38.02;27.51
10008;BME280;5043;41.766;26.204;2023-07-31T12:38:43;100214.25;;;37.69;27.10
10008;BME280;5043;41.766;26.204;2023-07-31T12:41:09;100249.16;;;37.41;28.30
10008;BME280;5043;41.766;26.204;2023-07-31T12:43:35;100235.88;;;36.82;28.10
10008;BME280;5043;41.766;26.204;2023-07-31T12:46:01;100245.84;;;37.20;27.17
10008;BME280;5043;41.766;26.204;2023-07-31T12:48:26;100246.69;;;37.40;26.98
10008;BME280;5043;41.766;26.204;2023-07-31T12:50:51;100202.91;;;37.89;26.28
10008;BME280;5043;41.766;26.204;2023-07-31T12:53:17;100237.25;;;38.56;26.09
10008;BME280;5043;41.766;26.204;2023-07-31T12:55:43;100217.81;;;39.15;25.43
10008;BME280;5043;41.766;26.204;2023-07-31T12:58:09;100139.25;;;38.59;24.85
10008;BME280;5043;41.766;26.204;2023-07-31T13:00:34;100225.78;;;39.39;25.38
10008;BME280;5043;41.766;26.204;2023-07-31T13:03:00;100236.38;;;39.81;25.23
10008;BME280;5043;41.766;26.204;2023-07-31T13:05:27;100230.28;;;40.24;24.74
10008;BME280;5043;41.766;26.204;2023-07-31T13:07:52;100172.44;;;39.52;24.89
10008;BME280;5043;41.766;26.204;2023-07-31T13:10:18;100134.16;;;38.52;25.94
10008;BME280;5043;41.766;26.204;2023-07-31T13:12:44;100224.88;;;38.67;26.26
10008;BME280;5043;41.766;26.204;2023-07-31T13:15:09;100217.59;;;38.17;26.72
10008;BME280;5043;41.766;26.204;2023-07-31T13:17:35;100224.06;;;37.43;27.45
10008;BME280;5043;41.766;26.204;2023-07-31T13:20:01;100170.09;;;37.23;27.33
10008;BME280;5043;41.766;26.204;2023-07-31T13:22:28;100205.69;;;37.38;27.72
10008;BME280;5043;41.766;26.204;2023-07-31T13:24:53;100212.81;;;37.20;27.19
10008;BME280;5043;41.766;26.204;2023-07-31T13:27:19;100153.06;;;36.60;28.41
10008;BME280;5043;41.766;26.204;2023-07-31T13:29:47;100208.09;;;37.21;27.32
10008;BME280;5043;41.766;26.204;2023-07-31T13:32:13;100211.44;;;38.20;25.98
10008;BME280;5043;41.766;26.204;2023-07-31T13:34:38;100214.00;;;39.92;24.32
10008;BME280;5043;41.766;26.204;2023-07-31T13:37:04;100204.56;;;41.70;22.38
10008;BME280;5043;41.766;26.204;2023-07-31T13:39:31;100199.66;;;43.39;20.53
10008;BME280;5043;41.766;26.204;2023-07-31T13:41:57;100214.19;;;44.34;19.59
10008;BME280;5043;41.766;26.204;2023-07-31T13:44:23;100219.03;;;43.68;20.04
10008;BME280;5043;41.766;26.204;2023-07-31T13:46:48;100171.50;;;42.50;20.64
10008;BME280;5043;41.766;26.204;2023-07-31T13:49:14;100190.69;;;40.93;22.21
10008;BME280;5043;41.766;26.204;2023-07-31T13:51:39;100229.03;;;39.77;23.90
10008;BME280;5043;41.766;26.204;2023-07-31T13:54:05;100229.69;;;38.89;24.52
10008;BME280;5043;41.766;26.204;2023-07-31T13:56:32;100221.41;;;38.48;24.96
10008;BME280;5043;41.766;26.204;2023-07-31T13:58:57;100238.50;;;38.77;25.04
10008;BME280;5043;41.766;26.204;2023-07-31T14:01:23;100215.88;;;40.05;23.67
10008;BME280;5043;41.766;26.204;2023-07-31T14:03:49;100215.47;;;40.51;23.21
10008;BME280;5043;41.766;26.204;2023-07-31T14:06:14;100227.38;;;39.98;23.58
10008;BME280;5043;41.766;26.204;2023-07-31T14:08:40;100184.53;;;39.21;24.31
10008;BME280;5043;41.766;26.204;2023-07-31T14:11:05;100179.38;;;38.92;24.65
10008;BME280;5043;41.766;26.204;2023-07-31T14:13:31;100210.72;;;39.23;24.41
10008;BME280;5043;41.766;26.204;2023-07-31T14:15:56;100214.06;;;39.34;24.01
10008;BME280;5043;41.766;26.204;2023-07-31T14:18:21;100192.81;;;39.21;24.04
10008;BME280;5043;41.766;26.204;2023-07-31T14:20:47;100223.03;;;39.39;24.04
10008;BME280;5043;41.766;26.204;2023-07-31T14:23:12;100171.75;;;38.34;24.54
10008;BME280;5043;41.766;26.204;2023-07-31T14:25:38;100205.28;;;37.96;25.14
10008;BME280;5043;41.766;26.204;2023-07-31T14:28:03;100208.53;;;37.84;25.39
10008;BME280;5043;41.766;26.204;2023-07-31T14:30:29;100168.38;;;37.78;24.84
10008;BME280;5043;41.766;26.204;2023-07-31T14:32:54;100159.78;;;38.25;24.37
10008;BME280;5043;41.766;26.204;2023-07-31T14:35:19;100199.06;;;39.12;23.89
10008;BME280;5043;41.766;26.204;2023-07-31T14:37:45;100194.47;;;39.08;23.85
10008;BME280;5043;41.766;26.204;2023-07-31T14:40:11;100190.13;;;38.66;24.34
10008;BME280;5043;41.766;26.204;2023-07-31T14:42:38;100210.59;;;38.38;24.69
10008;BME280;5043;41.766;26.204;2023-07-31T14:45:07;100172.09;;;37.55;25.52
10008;BME280;5043;41.766;26.204;2023-07-31T14:47:33;100167.19;;;37.14;25.60
10008;BME280;5043;41.766;26.204;2023-07-31T14:49:59;100204.47;;;37.07;26.00
10008;BME280;5043;41.766;26.204;2023-07-31T14:52:25;100207.03;;;36.56;26.44
10008;BME280;5043;41.766;26.204;2023-07-31T14:54:51;100205.13;;;36.28;27.24
10008;BME280;5043;41.766;26.204;2023-07-31T14:57:17;100169.09;;;35.77;27.45
10008;BME280;5043;41.766;26.204;2023-07-31T14:59:43;100191.22;;;35.57;27.43
10008;BME280;5043;41.766;26.204;2023-07-31T15:02:09;100192.91;;;35.14;28.59
10008;BME280;5043;41.766;26.204;2023-07-31T15:04:35;100148.44;;;34.63;29.15
10008;BME280;5043;41.766;26.204;2023-07-31T15:07:00;100154.81;;;34.43;29.87
10008;BME280;5043;41.766;26.204;2023-07-31T15:09:26;100161.66;;;34.46;29.79